Time;durP1;ratioP1;P1;durP2;ratioP2;P2;SDS_P1;SDS_P2;PMS_P1;PMS_P2;Temp;Humidity;BMP_temperature;BMP_pressure;BME280_temperature;BME280_humidity;BME280_pressure;Samples;Min_cycle;Max_cycle;Signal;HPM_P1;HPM_P2
2022/09/28 00:01:57;;;;;;;;;;;;;;;12.12;67.57;99481.53;5034211;28;19917;-51
2022/09/28 00:04:23;;;;;;;;;;;;;;;12.12;67.32;99478.91;5040005;28;19999;-50
2022/09/28 00:06:48;;;;;;;;;;;;;;;12.11;67.46;99479.00;5040459;28;19921;-53
2022/09/28 00:09:14;;;;;;;;;;;;;;;12.09;67.32;99478.34;5045875;28;19921;-49
2022/09/28 00:11:40;;;;;;;;;;;;;;;12.06;67.47;99482.03;5035975;28;19924;-50
2022/09/28 00:14:06;;;;;;;;;;;;;;;12.02;67.34;99478.84;5033362;28;19920;-49
2022/09/28 00:16:33;;;;;;;;;;;;;;;12.01;67.44;99474.53;5033675;28;19964;-49
2022/09/28 00:18:59;;;;;;;;;;;;;;;12.00;67.24;99467.59;5034041;28;19921;-53
2022/09/28 00:21:25;;;;;;;;;;;;;;;11.99;67.35;99471.19;5040103;28;20405;-50
2022/09/28 00:26:37;;;;;;;;;;;;;;;11.97;67.60;99466.97;5036478;28;19932;-49
2022/09/28 00:29:02;;;;;;;;;;;;;;;11.96;67.54;99466.13;5034630;28;19935;-51
2022/09/28 00:31:31;;;;;;;;;;;;;;;11.96;67.57;99465.31;5032202;28;19948;-52
2022/09/28 00:33:56;;;;;;;;;;;;;;;11.94;67.61;99462.81;5034760;28;20008;-50
2022/09/28 00:36:22;;;;;;;;;;;;;;;11.93;67.53;99458.50;5031890;28;19921;-52
2022/09/28 00:38:48;;;;;;;;;;;;;;;11.94;67.48;99456.69;5034736;28;19921;-49
2022/09/28 00:41:14;;;;;;;;;;;;;;;11.93;67.59;99453.22;5034775;28;19923;-49
2022/09/28 00:43:39;;;;;;;;;;;;;;;11.94;67.47;99459.31;5031508;28;19928;-51
2022/09/28 00:46:25;;;;;;;;;;;;;;;11.94;67.56;99447.00;5032538;28;20391;-49
2022/09/28 00:48:56;;;;;;;;;;;;;;;11.93;67.26;99449.75;5035313;28;20459;-53
2022/09/28 00:51:22;;;;;;;;;;;;;;;11.91;67.38;99452.53;5035273;28;20316;-53
2022/09/28 00:53:49;;;;;;;;;;;;;;;11.90;67.35;99456.94;5040108;28;19959;-51
2022/09/28 00:56:18;;;;;;;;;;;;;;;11.87;67.38;99451.91;5033551;28;19933;-49
2022/09/28 00:58:50;;;;;;;;;;;;;;;11.85;67.28;99453.88;5039188;28;19982;-49
2022/09/28 01:01:16;;;;;;;;;;;;;;;11.85;67.45;99456.50;5035721;28;20007;-54
2022/09/28 01:03:44;;;;;;;;;;;;;;;11.87;67.39;99453.72;5033656;28;20562;-50
2022/09/28 01:06:12;;;;;;;;;;;;;;;11.85;67.16;99453.03;5030648;28;19943;-50
2022/09/28 01:08:38;;;;;;;;;;;;;;;11.82;67.32;99456.75;5033752;28;19975;-50
2022/09/28 01:11:04;;;;;;;;;;;;;;;11.80;67.41;99456.06;5031641;28;19975;-51
2022/09/28 01:13:30;;;;;;;;;;;;;;;11.77;67.14;99456.31;5033110;28;19960;-51
2022/09/28 01:16:00;;;;;;;;;;;;;;;11.76;67.51;99459.91;5033275;28;19928;-52
2022/09/28 01:18:48;;;;;;;;;;;;;;;11.73;67.33;99458.38;5039786;28;19929;-49
2022/09/28 01:21:13;;;;;;;;;;;;;;;11.71;67.23;99457.66;4996024;28;20023;-49
2022/09/28 01:23:38;;;;;;;;;;;;;;;11.68;67.35;99467.63;5033416;28;20399;-50
2022/09/28 01:26:22;;;;;;;;;;;;;;;11.63;67.26;99457.47;5030231;28;19924;-49
2022/09/28 01:28:50;;;;;;;;;;;;;;;11.59;67.37;99454.22;5036965;28;19921;-49
2022/09/28 01:31:17;;;;;;;;;;;;;;;11.59;67.40;99453.41;5042244;28;19935;-50
2022/09/28 01:33:58;;;;;;;;;;;;;;;11.60;67.24;99455.06;5033830;28;19963;-51
2022/09/28 01:36:26;;;;;;;;;;;;;;;11.59;67.32;99453.41;5035173;28;19921;-51
2022/09/28 01:38:58;;;;;;;;;;;;;;;11.57;67.28;99453.50;5038130;28;19932;-50
2022/09/28 01:41:26;;;;;;;;;;;;;;;11.58;67.27;99454.38;5039284;28;20405;-52
2022/09/28 01:43:55;;;;;;;;;;;;;;;11.56;67.29;99451.88;5038641;28;19935;-50
2022/09/28 01:46:26;;;;;;;;;;;;;;;11.54;67.61;99447.66;5040033;28;19931;-51
2022/09/28 01:49:02;;;;;;;;;;;;;;;11.52;67.79;99445.16;5036391;28;19968;-50
2022/09/28 01:51:38;;;;;;;;;;;;;;;11.52;67.60;99446.94;5038514;28;19948;-50
2022/09/28 01:54:11;;;;;;;;;;;;;;;11.51;67.60;99445.28;5038038;28;19947;-55
2022/09/28 01:56:39;;;;;;;;;;;;;;;11.49;67.70;99448.06;5032127;28;19920;-50
2022/09/28 01:59:04;;;;;;;;;;;;;;;11.48;67.61;99446.38;5034150;28;19963;-50
2022/09/28 02:01:36;;;;;;;;;;;;;;;11.49;67.67;99450.69;5030158;28;20015;-50
2022/09/28 02:04:07;;;;;;;;;;;;;;;11.49;67.71;99441.97;5031698;28;19925;-55
2022/09/28 02:06:35;;;;;;;;;;;;;;;11.50;67.60;99441.81;5036229;28;20076;-50
2022/09/28 02:09:08;;;;;;;;;;;;;;;11.51;67.77;99442.66;5032083;28;19920;-51
2022/09/28 02:11:36;;;;;;;;;;;;;;;11.52;67.78;99446.94;5037925;28;19955;-49
2022/09/28 02:14:07;;;;;;;;;;;;;;;11.52;67.82;99445.16;5038995;28;19942;-52
2022/09/28 02:16:35;;;;;;;;;;;;;;;11.52;67.96;99446.94;5032150;28;19933;-52
2022/09/28 02:19:01;;;;;;;;;;;;;;;11.50;67.79;99444.47;5035169;28;19920;-51
2022/09/28 02:21:30;;;;;;;;;;;;;;;11.51;67.79;99445.28;5036893;28;22074;-49
2022/09/28 02:24:08;;;;;;;;;;;;;;;11.51;67.61;99440.88;5029832;28;20369;-51
2022/09/28 02:26:34;;;;;;;;;;;;;;;11.52;67.71;99446.94;5034664;28;19925;-50
2022/09/28 02:29:00;;;;;;;;;;;;;;;11.51;67.42;99451.41;5034523;28;20320;-51
2022/09/28 02:31:26;;;;;;;;;;;;;;;11.51;67.60;99446.13;5035169;28;19924;-51
2022/09/28 02:33:53;;;;;;;;;;;;;;;11.49;67.50;99445.41;5032241;28;20061;-49
2022/09/28 02:36:19;;;;;;;;;;;;;;;11.50;67.57;99441.81;5028200;28;19933;-50
2022/09/28 02:38:44;;;;;;;;;;;;;;;11.49;67.39;99448.06;5033545;28;20311;-50
2022/09/28 02:41:10;;;;;;;;;;;;;;;11.49;67.46;99450.69;5031931;28;19924;-49
2022/09/28 02:43:54;;;;;;;;;;;;;;;11.50;67.58;99449.72;5029333;28;19921;-53
2022/09/28 02:46:22;;;;;;;;;;;;;;;11.49;67.67;99448.06;5028775;28;19927;-51
2022/09/28 02:48:47;;;;;;;;;;;;;;;11.49;67.43;99448.06;5033135;28;19970;-51
2022/09/28 02:51:38;;;;;;;;;;;;;;;11.50;67.63;99446.25;5033697;28;19963;-50
2022/09/28 02:54:22;;;;;;;;;;;;;;;11.51;67.46;99451.41;5026612;28;20459;-50
2022/09/28 02:56:47;;;;;;;;;;;;;;;11.49;67.52;99450.69;5031942;28;19929;-50
2022/09/28 02:59:21;;;;;;;;;;;;;;;11.50;67.48;99449.72;5034216;28;19968;-50
2022/09/28 03:02:00;;;;;;;;;;;;;;;11.47;67.51;99439.44;5030958;28;20010;-49
2022/09/28 03:04:35;;;;;;;;;;;;;;;11.46;67.52;99444.84;5032367;28;20446;-50
2022/09/28 03:07:04;;;;;;;;;;;;;;;11.46;67.43;99447.47;5034212;28;19932;-51
2022/09/28 03:09:38;;;;;;;;;;;;;;;11.46;67.36;99448.31;5038452;28;19921;-52
2022/09/28 03:12:08;;;;;;;;;;;;;;;11.45;67.51;99444.00;5032740;28;19925;-50
2022/09/28 03:14:33;;;;;;;;;;;;;;;11.44;67.45;99440.53;5031077;28;19959;-49
2022/09/28 03:16:59;;;;;;;;;;;;;;;11.44;67.45;99444.94;5034045;28;20056;-51
2022/09/28 03:19:28;;;;;;;;;;;;;;;11.42;67.33;99446.88;5034829;28;19959;-54
2022/09/28 03:21:54;;;;;;;;;;;;;;;11.38;67.67;99440.19;5033323;28;20059;-52
2022/09/28 03:24:19;;;;;;;;;;;;;;;11.34;67.75;99439.63;5030447;28;19963;-50
2022/09/28 03:26:45;;;;;;;;;;;;;;;11.33;67.59;99443.22;5033695;28;20564;-49
2022/09/28 03:29:10;;;;;;;;;;;;;;;11.33;67.83;99439.72;5033919;28;20327;-49
2022/09/28 03:31:35;;;;;;;;;;;;;;;11.33;67.69;99437.09;5030352;28;20054;-50
2022/09/28 03:34:01;;;;;;;;;;;;;;;11.31;67.79;99439.03;5039021;28;19986;-49
2022/09/28 03:36:26;;;;;;;;;;;;;;;11.31;67.69;99431.13;5037096;28;19972;-49
2022/09/28 03:38:54;;;;;;;;;;;;;;;11.28;67.69;99435.66;5039628;28;19925;-49
2022/09/28 03:41:20;;;;;;;;;;;;;;;11.24;67.77;99426.38;5039780;28;19921;-52
2022/09/28 03:43:45;;;;;;;;;;;;;;;11.22;67.95;99424.81;5040318;28;19928;-49
2022/09/28 03:46:11;;;;;;;;;;;;;;;11.22;67.70;99423.03;5035825;28;19928;-51
2022/09/28 03:48:36;;;;;;;;;;;;;;;11.22;67.76;99415.13;5033105;28;19928;-49
2022/09/28 03:51:03;;;;;;;;;;;;;;;11.24;67.87;99426.38;5034512;28;19929;-49
2022/09/28 03:53:28;;;;;;;;;;;;;;;11.26;67.77;99413.91;5037373;28;20349;-50
2022/09/28 03:55:54;;;;;;;;;;;;;;;11.28;67.93;99419.88;5042917;28;21071;-50
2022/09/28 03:58:20;;;;;;;;;;;;;;;11.28;67.77;99417.25;5040311;28;20343;-49
2022/09/28 04:00:46;;;;;;;;;;;;;;;11.30;67.84;99419.75;5036034;28;19935;-50
2022/09/28 04:03:11;;;;;;;;;;;;;;;11.29;67.75;99418.09;5034680;28;19921;-50
2022/09/28 04:05:37;;;;;;;;;;;;;;;11.32;67.84;99419.63;5034075;28;19929;-51
2022/09/28 04:08:02;;;;;;;;;;;;;;;11.34;67.79;99413.28;5033924;28;19921;-50
2022/09/28 04:10:27;;;;;;;;;;;;;;;11.34;67.62;99417.72;5035167;28;19935;-54
2022/09/28 04:12:53;;;;;;;;;;;;;;;11.35;67.86;99400.94;5042073;28;19924;-49
2022/09/28 04:15:19;;;;;;;;;;;;;;;11.34;68.03;99412.44;5040693;28;19920;-50
2022/09/28 04:17:44;;;;;;;;;;;;;;;11.34;67.84;99399.28;5042084;28;20604;-49
2022/09/28 04:20:09;;;;;;;;;;;;;;;11.35;67.79;99403.59;5042245;28;19983;-51
2022/09/28 04:22:36;;;;;;;;;;;;;;;11.36;67.99;99397.34;5038296;28;20000;-50
2022/09/28 04:25:02;;;;;;;;;;;;;;;11.37;67.84;99406.94;5031504;28;19928;-51
2022/09/28 04:30:11;;;;;;;;;;;;;;;11.38;67.86;99409.44;5033788;28;19939;-53
2022/09/28 04:32:36;;;;;;;;;;;;;;;11.39;67.86;99408.47;5041226;28;19929;-50
2022/09/28 04:35:02;;;;;;;;;;;;;;;11.39;67.95;99400.56;5035604;28;19936;-49
2022/09/28 04:37:30;;;;;;;;;;;;;;;11.39;68.06;99399.75;5040180;28;19925;-50
2022/09/28 04:39:55;;;;;;;;;;;;;;;11.39;67.98;99400.56;5040804;28;19968;-49
2022/09/28 04:42:20;;;;;;;;;;;;;;;11.40;67.92;99396.16;5036491;28;19979;-50
2022/09/28 04:44:46;;;;;;;;;;;;;;;11.40;68.12;99390.88;5028182;28;19964;-49
2022/09/28 04:47:11;;;;;;;;;;;;;;;11.39;67.91;99390.03;5036213;28;20779;-50
2022/09/28 04:49:37;;;;;;;;;;;;;;;11.38;68.04;99398.88;5035318;28;19921;-50
2022/09/28 04:52:03;;;;;;;;;;;;;;;11.39;67.94;99399.75;5036411;28;20324;-49
2022/09/28 04:54:28;;;;;;;;;;;;;;;11.35;67.98;99393.88;5037024;28;19917;-50
2022/09/28 04:56:54;;;;;;;;;;;;;;;11.32;68.19;99391.50;5035342;28;19975;-50
2022/09/28 04:59:19;;;;;;;;;;;;;;;11.29;68.29;99387.31;5035870;28;19928;-51
2022/09/28 05:01:45;;;;;;;;;;;;;;;11.26;68.08;99390.22;5034857;28;19934;-50
2022/09/28 05:04:10;;;;;;;;;;;;;;;11.26;68.18;99389.38;5035048;28;20837;-50
2022/09/28 05:06:36;;;;;;;;;;;;;;;11.23;67.97;99394.88;5034664;28;19968;-51
2022/09/28 05:09:01;;;;;;;;;;;;;;;11.21;68.16;99395.03;5032302;28;19920;-50
2022/09/28 05:11:26;;;;;;;;;;;;;;;11.19;68.00;99394.31;5008073;28;19931;-50
2022/09/28 05:13:52;;;;;;;;;;;;;;;11.17;68.26;99401.50;5034044;28;20007;-49
2022/09/28 05:16:19;;;;;;;;;;;;;;;11.17;68.21;99406.75;5041048;28;19940;-51
2022/09/28 05:18:44;;;;;;;;;;;;;;;11.18;68.18;99403.16;5031786;28;19975;-51
2022/09/28 05:21:11;;;;;;;;;;;;;;;11.20;68.34;99403.88;5022878;28;19999;-52
2022/09/28 05:23:37;;;;;;;;;;;;;;;11.21;68.08;99402.06;5033089;28;19932;-52
2022/09/28 05:26:02;;;;;;;;;;;;;;;11.23;68.36;99403.63;5033368;28;19924;-51
2022/09/28 05:28:28;;;;;;;;;;;;;;;11.24;68.11;99397.41;5031326;28;19920;-52
2022/09/28 05:30:57;;;;;;;;;;;;;;;11.26;68.26;99399.91;5035161;28;19975;-51
2022/09/28 05:33:22;;;;;;;;;;;;;;;11.28;68.21;99403.25;5034208;28;19944;-50
2022/09/28 05:35:47;;;;;;;;;;;;;;;11.27;68.12;99397.13;5037860;28;19925;-49
2022/09/28 05:38:13;;;;;;;;;;;;;;;11.27;68.35;99393.69;5034278;28;20008;-49
2022/09/28 05:40:38;;;;;;;;;;;;;;;11.27;68.30;99397.13;5042355;28;19925;-52
2022/09/28 05:43:03;;;;;;;;;;;;;;;11.28;68.16;99398.00;5034784;28;20023;-49
2022/09/28 05:45:28;;;;;;;;;;;;;;;11.26;68.04;99403.38;5040341;28;19929;-53
2022/09/28 05:47:54;;;;;;;;;;;;;;;11.25;68.22;99406.97;5043852;28;19925;-50
2022/09/28 05:50:19;;;;;;;;;;;;;;;11.26;68.19;99406.03;5044378;28;19929;-50
2022/09/28 05:52:45;;;;;;;;;;;;;;;11.26;68.22;99406.03;5046145;28;20028;-51
2022/09/28 05:55:11;;;;;;;;;;;;;;;11.26;68.32;99408.66;5041067;28;20408;-49
2022/09/28 05:57:36;;;;;;;;;;;;;;;11.28;68.29;99414.59;5033208;28;19936;-52
2022/09/28 06:00:07;;;;;;;;;;;;;;;11.29;68.48;99413.66;5045977;28;19916;-52
2022/09/28 06:02:33;;;;;;;;;;;;;;;11.32;68.44;99417.84;5046431;28;19927;-49
2022/09/28 06:04:58;;;;;;;;;;;;;;;11.36;68.53;99423.69;5041773;28;20351;-50
2022/09/28 06:07:23;;;;;;;;;;;;;;;11.38;68.34;99422.59;5046306;28;20069;-50
2022/09/28 06:09:49;;;;;;;;;;;;;;;11.41;68.42;99417.06;5036855;28;19920;-51
2022/09/28 06:12:14;;;;;;;;;;;;;;;11.43;68.26;99428.31;5043561;28;19920;-51
2022/09/28 06:14:47;;;;;;;;;;;;;;;11.48;68.30;99429.75;5042154;28;19968;-50
2022/09/28 06:17:12;;;;;;;;;;;;;;;11.49;68.01;99423.53;5041828;28;20325;-53
2022/09/28 06:19:38;;;;;;;;;;;;;;;11.49;68.28;99421.72;5042345;28;19924;-50
2022/09/28 06:22:03;;;;;;;;;;;;;;;11.50;68.15;99427.81;5044387;28;19952;-52
2022/09/28 06:24:28;;;;;;;;;;;;;;;11.50;68.30;99418.13;5042854;28;20452;-52
2022/09/28 06:26:54;;;;;;;;;;;;;;;11.51;68.21;99425.06;5045642;28;20414;-52
2022/09/28 06:29:19;;;;;;;;;;;;;;;11.51;68.32;99425.06;5041393;28;19924;-51
2022/09/28 06:31:46;;;;;;;;;;;;;;;11.54;68.13;99418.69;5046907;28;19957;-52
2022/09/28 06:34:11;;;;;;;;;;;;;;;11.54;68.20;99423.97;5043270;28;19925;-50
2022/09/28 06:36:37;;;;;;;;;;;;;;;11.55;68.10;99413.31;5045729;28;19929;-50
2022/09/28 06:39:02;;;;;;;;;;;;;;;11.57;68.02;99419.25;5044653;28;19927;-50
2022/09/28 06:41:27;;;;;;;;;;;;;;;11.58;68.01;99417.47;5043181;28;19925;-51
2022/09/28 06:43:53;;;;;;;;;;;;;;;11.60;67.95;99420.81;5044352;28;20315;-52
2022/09/28 06:46:19;;;;;;;;;;;;;;;11.62;67.77;99420.69;5045532;28;19921;-52
2022/09/28 06:48:45;;;;;;;;;;;;;;;11.64;68.05;99421.41;5044180;28;19921;-50
2022/09/28 06:51:10;;;;;;;;;;;;;;;11.65;68.10;99421.25;5027589;28;19970;-49
2022/09/28 06:53:36;;;;;;;;;;;;;;;11.68;67.94;99430.72;5038598;28;19932;-50
2022/09/28 06:56:01;;;;;;;;;;;;;;;11.69;68.00;99424.50;5044433;28;19932;-49
2022/09/28 06:58:27;;;;;;;;;;;;;;;11.72;67.98;99429.50;5026040;28;19916;-50
2022/09/28 07:00:58;;;;;;;;;;;;;;;11.71;67.72;99425.22;5047322;28;19928;-52
2022/09/28 07:03:23;;;;;;;;;;;;;;;11.69;67.69;99425.31;5043287;28;19939;-52
2022/09/28 07:05:50;;;;;;;;;;;;;;;11.70;67.56;99429.63;5045920;28;20008;-52
2022/09/28 07:08:15;;;;;;;;;;;;;;;11.69;67.60;99427.13;5038801;28;20058;-50
2022/09/28 07:10:42;;;;;;;;;;;;;;;11.70;67.58;99428.81;5038535;28;19950;-51
2022/09/28 07:13:08;;;;;;;;;;;;;;;11.71;67.40;99422.56;5042313;28;19921;-52
2022/09/28 07:15:33;;;;;;;;;;;;;;;11.72;67.52;99421.63;5046227;28;19936;-49
2022/09/28 07:17:59;;;;;;;;;;;;;;;11.73;67.47;99417.97;5047534;28;19933;-49
2022/09/28 07:20:25;;;;;;;;;;;;;;;11.75;67.41;99426.59;5042437;28;20308;-52
2022/09/28 07:22:54;;;;;;;;;;;;;;;11.74;67.59;99423.16;5035138;28;19924;-49
2022/09/28 07:25:19;;;;;;;;;;;;;;;11.74;67.68;99425.78;5038274;28;19920;-52
2022/09/28 07:27:45;;;;;;;;;;;;;;;11.77;67.49;99429.13;5050890;28;19928;-53
2022/09/28 07:30:11;;;;;;;;;;;;;;;11.77;67.58;99418.59;5046644;28;19928;-50
2022/09/28 07:32:37;;;;;;;;;;;;;;;11.80;67.59;99419.16;5046525;28;20027;-53
2022/09/28 07:35:08;;;;;;;;;;;;;;;11.81;67.49;99420.81;5044847;28;19928;-53
2022/09/28 07:37:36;;;;;;;;;;;;;;;11.84;67.64;99417.09;5047663;28;20451;-51
2022/09/28 07:42:46;;;;;;;;;;;;;;;11.93;67.64;99415.47;5045466;28;19979;-51
2022/09/28 07:45:12;;;;;;;;;;;;;;;11.97;67.51;99412.44;5050289;28;19920;-52
2022/09/28 07:47:37;;;;;;;;;;;;;;;12.02;67.62;99402.38;5052976;28;19966;-49
2022/09/28 07:50:03;;;;;;;;;;;;;;;12.07;67.65;99399.34;5048572;28;20015;-50
2022/09/28 07:52:28;;;;;;;;;;;;;;;12.14;67.49;99400.50;5045513;28;19917;-50
2022/09/28 07:54:54;;;;;;;;;;;;;;;12.19;67.56;99395.66;5044827;28;19925;-49
2022/09/28 07:57:20;;;;;;;;;;;;;;;12.26;67.44;99405.69;5042955;28;20055;-50
2022/09/28 07:59:45;;;;;;;;;;;;;;;12.32;67.41;99408.63;5041630;28;19962;-50
2022/09/28 08:02:10;;;;;;;;;;;;;;;12.38;67.26;99401.97;5047026;28;20334;-49
2022/09/28 08:04:36;;;;;;;;;;;;;;;12.44;67.45;99406.75;5047282;28;19924;-50
2022/09/28 08:07:02;;;;;;;;;;;;;;;12.48;67.29;99402.84;5047686;28;20376;-50
2022/09/28 08:09:27;;;;;;;;;;;;;;;12.53;67.19;99404.25;5048217;28;19917;-51
2022/09/28 08:11:53;;;;;;;;;;;;;;;12.58;67.19;99407.34;5045240;28;19917;-50
2022/09/28 08:14:19;;;;;;;;;;;;;;;12.64;67.15;99402.34;5045441;28;19916;-49
2022/09/28 08:16:44;;;;;;;;;;;;;;;12.68;67.07;99402.91;5047758;28;19921;-49
2022/09/28 08:19:10;;;;;;;;;;;;;;;12.73;66.99;99405.97;5049003;28;19928;-50
2022/09/28 08:21:44;;;;;;;;;;;;;;;12.77;66.85;99407.38;5049175;28;19919;-51
2022/09/28 08:24:09;;;;;;;;;;;;;;;12.80;66.78;99401.00;5044700;28;19933;-49
2022/09/28 08:26:35;;;;;;;;;;;;;;;12.81;66.83;99408.75;5045228;28;19921;-49
2022/09/28 08:29:00;;;;;;;;;;;;;;;12.84;66.87;99406.84;5048400;28;20357;-51
2022/09/28 08:31:26;;;;;;;;;;;;;;;12.86;66.73;99407.53;5041441;28;19928;-51
2022/09/28 08:33:52;;;;;;;;;;;;;;;12.88;66.67;99411.69;5041889;28;19925;-54
2022/09/28 08:36:18;;;;;;;;;;;;;;;12.93;66.84;99411.31;5044166;28;19933;-50
2022/09/28 08:38:43;;;;;;;;;;;;;;;12.96;66.51;99405.72;5042507;28;20728;-50
2022/09/28 08:41:08;;;;;;;;;;;;;;;13.00;66.59;99401.84;5045011;28;19936;-51
2022/09/28 08:43:34;;;;;;;;;;;;;;;13.03;66.72;99400.75;5036759;28;20086;-52
2022/09/28 08:45:59;;;;;;;;;;;;;;;13.04;66.61;99408.53;5043377;28;19916;-52
2022/09/28 08:48:43;;;;;;;;;;;;;;;13.07;66.52;99418.84;5043293;28;19921;-52
2022/09/28 08:51:14;;;;;;;;;;;;;;;13.10;66.48;99417.72;5039073;28;19963;-54
2022/09/28 08:53:49;;;;;;;;;;;;;;;13.11;66.34;99419.38;5040982;28;19982;-50
2022/09/28 08:56:19;;;;;;;;;;;;;;;13.12;66.23;99421.06;5040721;28;20316;-49
2022/09/28 08:58:50;;;;;;;;;;;;;;;13.14;66.37;99418.28;5044569;28;19995;-50
2022/09/28 09:01:17;;;;;;;;;;;;;;;13.15;66.27;99418.16;5044108;28;19920;-51
2022/09/28 09:03:44;;;;;;;;;;;;;;;13.18;66.18;99419.66;5040792;28;19924;-50
2022/09/28 09:06:15;;;;;;;;;;;;;;;13.20;66.19;99421.19;5042623;28;19928;-49
2022/09/28 09:08:59;;;;;;;;;;;;;;;13.21;66.11;99409.66;5042961;28;19948;-50
2022/09/28 09:11:44;;;;;;;;;;;;;;;13.26;66.17;99418.00;5040050;28;19924;-50
2022/09/28 09:14:15;;;;;;;;;;;;;;;13.29;66.11;99416.88;5035464;28;19932;-51
2022/09/28 09:16:40;;;;;;;;;;;;;;;13.31;66.09;99420.22;5027247;28;19921;-49
2022/09/28 09:19:08;;;;;;;;;;;;;;;13.33;65.91;99420.06;5043491;28;20364;-48
2022/09/28 09:22:08;;;;;;;;;;;;;;;13.34;65.98;99419.09;5045675;28;19920;-49
2022/09/28 09:24:50;;;;;;;;;;;;;;;13.35;65.88;99411.06;5010363;28;20367;-52
2022/09/28 09:27:36;;;;;;;;;;;;;;;13.38;65.92;99420.50;5041611;28;19921;-50
2022/09/28 09:30:02;;;;;;;;;;;;;;;13.44;65.85;99420.00;5039074;28;21553;-49
2022/09/28 09:32:27;;;;;;;;;;;;;;;13.49;65.72;99414.28;5045452;28;19921;-48
2022/09/28 09:34:53;;;;;;;;;;;;;;;13.54;65.69;99418.16;5045812;28;19916;-51
2022/09/28 09:37:34;;;;;;;;;;;;;;;13.59;65.63;99416.91;5047235;28;19975;-51
2022/09/28 09:40:18;;;;;;;;;;;;;;;13.64;65.53;99425.25;5046160;28;20410;-50
2022/09/28 09:42:54;;;;;;;;;;;;;;;13.66;65.27;99420.66;5045581;28;20446;-50
2022/09/28 09:45:25;;;;;;;;;;;;;;;13.65;65.42;99413.69;5045721;28;19912;-50
2022/09/28 09:48:08;;;;;;;;;;;;;;;13.67;65.28;99415.25;5039317;28;19913;-50
2022/09/28 09:50:38;;;;;;;;;;;;;;;13.66;65.22;99413.56;5046880;28;19921;-51
2022/09/28 09:53:13;;;;;;;;;;;;;;;13.68;65.14;99414.28;5046651;28;19921;-51
2022/09/28 09:55:43;;;;;;;;;;;;;;;13.75;64.92;99411.03;5046169;28;19920;-49
2022/09/28 09:58:09;;;;;;;;;;;;;;;13.80;64.79;99408.81;5044645;28;20340;-51
2022/09/28 10:00:35;;;;;;;;;;;;;;;13.89;64.60;99413.25;5047237;28;19920;-50
2022/09/28 10:03:01;;;;;;;;;;;;;;;13.97;64.44;99402.78;5044819;28;19917;-53
2022/09/28 10:05:29;;;;;;;;;;;;;;;14.07;64.42;99400.09;5040851;28;19928;-52
2022/09/28 10:07:54;;;;;;;;;;;;;;;14.16;64.26;99398.41;5045912;28;20334;-50
2022/09/28 10:10:23;;;;;;;;;;;;;;;14.24;64.09;99406.47;5038558;28;20011;-52
2022/09/28 10:12:49;;;;;;;;;;;;;;;14.32;63.83;99403.91;5038104;28;19967;-52
2022/09/28 10:15:18;;;;;;;;;;;;;;;14.39;63.76;99400.69;5040577;28;19925;-51
2022/09/28 10:17:45;;;;;;;;;;;;;;;14.44;63.69;99401.91;5038587;28;22258;-49
2022/09/28 10:20:13;;;;;;;;;;;;;;;14.46;63.55;99404.41;5042291;28;19935;-52
2022/09/28 10:22:38;;;;;;;;;;;;;;;14.47;63.43;99400.78;5041377;28;19916;-51
2022/09/28 10:25:04;;;;;;;;;;;;;;;14.46;63.25;99397.31;5040905;28;19935;-50
2022/09/28 10:27:33;;;;;;;;;;;;;;;14.44;63.23;99401.09;5038892;28;20244;-50
2022/09/28 10:30:10;;;;;;;;;;;;;;;14.42;63.09;99401.22;5040478;28;19935;-51
2022/09/28 10:32:36;;;;;;;;;;;;;;;14.39;63.27;99403.34;5038193;28;19917;-51
2022/09/28 10:35:25;;;;;;;;;;;;;;;14.41;63.23;99401.38;5037778;28;19921;-49
2022/09/28 10:38:13;;;;;;;;;;;;;;;14.46;62.96;99405.25;5033408;28;19921;-50
2022/09/28 10:40:44;;;;;;;;;;;;;;;14.51;62.69;99406.63;5044288;28;19998;-52
2022/09/28 10:43:28;;;;;;;;;;;;;;;14.51;62.51;99406.63;5042022;28;19928;-49
2022/09/28 10:46:00;;;;;;;;;;;;;;;14.51;62.36;99410.09;5042824;28;20364;-53
2022/09/28 10:48:27;;;;;;;;;;;;;;;14.49;62.36;99406.75;5044771;28;19917;-51
2022/09/28 10:50:57;;;;;;;;;;;;;;;14.45;62.29;99413.31;5044434;28;19925;-49
2022/09/28 10:53:22;;;;;;;;;;;;;;;14.40;62.28;99411.13;5039566;28;20768;-50
2022/09/28 10:55:58;;;;;;;;;;;;;;;14.37;62.40;99405.28;5037270;28;20426;-49
2022/09/28 10:58:25;;;;;;;;;;;;;;;14.33;62.30;99408.22;5040835;28;19940;-49
2022/09/28 11:00:51;;;;;;;;;;;;;;;14.31;62.31;99404.88;5042219;28;19955;-49
2022/09/28 11:03:24;;;;;;;;;;;;;;;14.31;62.26;99404.88;5039255;28;19952;-50
2022/09/28 11:06:15;;;;;;;;;;;;;;;14.31;62.24;99402.25;5047467;28;19916;-50
2022/09/28 11:08:42;;;;;;;;;;;;;;;14.31;62.16;99418.13;5026528;28;20292;-50
2022/09/28 11:11:11;;;;;;;;;;;;;;;14.32;62.20;99406.56;5048203;28;19925;-51
2022/09/28 11:13:41;;;;;;;;;;;;;;;14.37;62.06;99407.94;5043179;28;19989;-51
2022/09/28 11:16:07;;;;;;;;;;;;;;;14.41;61.99;99398.72;5032522;28;19932;-51
2022/09/28 11:18:33;;;;;;;;;;;;;;;14.42;61.90;99401.22;5039726;28;19917;-50
2022/09/28 11:21:09;;;;;;;;;;;;;;;14.42;61.94;99403.88;5041863;28;20424;-49
2022/09/28 11:23:34;;;;;;;;;;;;;;;14.43;61.98;99389.66;5040377;28;20018;-51
2022/09/28 11:26:04;;;;;;;;;;;;;;;14.46;61.88;99399.09;5039675;28;20304;-52
2022/09/28 11:28:32;;;;;;;;;;;;;;;14.46;61.58;99399.09;5039032;28;20523;-50
2022/09/28 11:30:58;;;;;;;;;;;;;;;14.46;61.42;99396.47;5039546;28;19928;-50
2022/09/28 11:33:23;;;;;;;;;;;;;;;14.47;61.35;99400.78;5038478;28;19925;-52
2022/09/28 11:35:51;;;;;;;;;;;;;;;14.48;61.37;99403.28;5046523;28;19975;-49
2022/09/28 11:38:27;;;;;;;;;;;;;;;14.50;61.15;99399.66;5050004;28;19935;-50
2022/09/28 11:40:58;;;;;;;;;;;;;;;14.48;61.11;99402.44;5047889;28;19921;-49
2022/09/28 11:43:52;;;;;;;;;;;;;;;14.46;60.95;99399.97;5049556;28;19912;-51
2022/09/28 11:46:23;;;;;;;;;;;;;;;14.47;61.02;99400.78;5043260;28;20386;-52
2022/09/28 11:48:55;;;;;;;;;;;;;;;14.48;61.11;99394.50;5048568;28;19935;-49
2022/09/28 11:51:23;;;;;;;;;;;;;;;14.51;60.94;99390.75;5046323;28;19947;-49
2022/09/28 11:54:13;;;;;;;;;;;;;;;14.53;60.81;99404.66;5044542;28;19921;-53
2022/09/28 11:56:44;;;;;;;;;;;;;;;14.54;60.66;99401.88;5045480;28;19921;-52
2022/09/28 11:59:18;;;;;;;;;;;;;;;14.58;60.51;99400.59;5021255;28;19921;-50
2022/09/28 12:01:57;;;;;;;;;;;;;;;14.60;60.34;99406.56;5046423;28;20516;-52
2022/09/28 12:04:42;;;;;;;;;;;;;;;14.61;60.37;99397.63;5048972;28;20284;-49
2022/09/28 12:07:22;;;;;;;;;;;;;;;14.63;60.48;99395.69;5025354;28;19917;-56
2022/09/28 12:09:57;;;;;;;;;;;;;;;14.68;60.50;99397.09;5046559;28;19932;-51
2022/09/28 12:12:34;;;;;;;;;;;;;;;14.71;60.43;99399.44;5043719;28;19924;-52
2022/09/28 12:15:19;;;;;;;;;;;;;;;14.73;60.42;99403.59;5042126;28;19931;-50
2022/09/28 12:18:03;;;;;;;;;;;;;;;14.74;60.44;99393.88;5041678;28;19921;-53
2022/09/28 12:20:34;;;;;;;;;;;;;;;14.76;60.30;99395.38;5049169;28;19925;-49
2022/09/28 12:23:08;;;;;;;;;;;;;;;14.77;60.15;99398.84;5047637;28;19928;-49
2022/09/28 12:25:45;;;;;;;;;;;;;;;14.78;60.09;99400.50;5046542;28;20023;-51
2022/09/28 12:28:39;;;;;;;;;;;;;;;14.77;60.10;99402.34;5048221;28;19917;-53
2022/09/28 12:31:14;;;;;;;;;;;;;;;14.77;60.05;99407.63;5020246;28;19929;-50
2022/09/28 12:33:44;;;;;;;;;;;;;;;14.73;60.01;99398.31;5046427;28;19917;-52
2022/09/28 12:36:25;;;;;;;;;;;;;;;14.72;60.05;99403.75;5045218;28;19931;-51
2022/09/28 12:39:02;;;;;;;;;;;;;;;14.71;60.07;99404.75;5048118;28;19916;-49
2022/09/28 12:41:46;;;;;;;;;;;;;;;14.71;59.91;99399.44;5046282;28;19967;-50
2022/09/28 12:44:31;;;;;;;;;;;;;;;14.72;59.88;99398.47;5044659;28;20404;-53
2022/09/28 12:47:23;;;;;;;;;;;;;;;14.75;59.75;99398.16;5045393;28;19952;-53
2022/09/28 12:49:55;;;;;;;;;;;;;;;14.78;59.89;99393.41;5022411;28;19920;-50
2022/09/28 12:52:31;;;;;;;;;;;;;;;14.80;59.70;99401.19;5047775;28;19916;-50
2022/09/28 12:55:14;;;;;;;;;;;;;;;14.84;59.69;99397.28;5043908;28;19946;-50
2022/09/28 12:57:44;;;;;;;;;;;;;;;14.87;59.58;99396.97;5042866;28;19929;-51
2022/09/28 13:00:21;;;;;;;;;;;;;;;14.91;59.52;99400.97;5041958;28;20012;-52
2022/09/28 13:03:06;;;;;;;;;;;;;;;14.92;59.49;99396.53;5044687;28;19956;-51
2022/09/28 13:05:51;;;;;;;;;;;;;;;14.91;59.44;99398.31;5047323;28;19920;-53
2022/09/28 13:08:21;;;;;;;;;;;;;;;14.91;59.42;99400.16;5038644;28;20440;-50